Time;durP1;ratioP1;P1;durP2;ratioP2;P2;SDS_P1;SDS_P2;PMS_P1;PMS_P2;Temp;Humidity;BMP_temperature;BMP_pressure;BME280_temperature;BME280_humidity;BME280_pressure;Samples;Min_cycle;Max_cycle;Signal;HPM_P1;HPM_P2
2022/07/03 00:01:42;;;;;;;18.25;3.53;;;14.40;99.90;;;;;;5001240;28;20034;-68
2022/07/03 00:04:09;;;;;;;14.13;3.17;;;14.50;99.90;;;;;;4980366;28;20064;-67
2022/07/03 00:06:36;;;;;;;9.40;2.92;;;14.50;99.90;;;;;;5000550;28;20022;-65
2022/07/03 00:09:05;;;;;;;13.35;2.70;;;14.50;99.90;;;;;;4998750;28;20034;-67
2022/07/03 00:11:33;;;;;;;12.02;2.88;;;14.50;99.90;;;;;;5000441;28;20130;-66
2022/07/03 00:14:00;;;;;;;14.90;3.40;;;14.60;99.90;;;;;;5000352;28;20018;-67
2022/07/03 00:16:27;;;;;;;11.05;2.50;;;14.70;99.90;;;;;;5000339;28;20030;-67
2022/07/03 00:18:55;;;;;;;9.88;2.60;;;14.70;99.90;;;;;;5001689;28;20037;-67
2022/07/03 00:21:29;;;;;;;9.07;2.08;;;14.80;99.90;;;;;;5003799;28;20112;-66
2022/07/03 00:24:04;;;;;;;11.07;2.72;;;14.80;99.90;;;;;;5003860;28;20488;-68
2022/07/03 00:26:36;;;;;;;11.73;2.40;;;14.80;99.90;;;;;;5003480;28;20131;-65
2022/07/03 00:29:04;;;;;;;7.15;2.38;;;15.00;99.90;;;;;;5002137;28;20692;-66
2022/07/03 00:31:33;;;;;;;12.68;2.63;;;15.00;99.90;;;;;;5003188;28;20046;-65
2022/07/03 00:34:01;;;;;;;7.72;2.25;;;15.10;99.90;;;;;;5003016;28;20026;-65
2022/07/03 00:36:35;;;;;;;11.27;2.58;;;15.10;99.90;;;;;;5004645;28;20397;-65
2022/07/03 00:39:03;;;;;;;6.25;2.00;;;15.10;99.90;;;;;;5002916;28;20057;-65
2022/07/03 00:41:32;;;;;;;12.25;2.45;;;15.10;99.90;;;;;;5003021;28;20034;-66
2022/07/03 00:44:00;;;;;;;9.98;2.42;;;15.10;99.90;;;;;;5003097;28;20025;-66
2022/07/03 00:46:29;;;;;;;11.98;2.15;;;15.20;99.90;;;;;;5003007;28;20517;-66
2022/07/03 00:48:58;;;;;;;8.82;1.88;;;15.20;99.90;;;;;;5002574;28;20416;-67
2022/07/03 00:51:29;;;;;;;9.13;2.60;;;15.30;99.90;;;;;;5002830;28;20388;-66
2022/07/03 00:53:57;;;;;;;8.90;2.53;;;15.30;99.90;;;;;;5002687;28;20120;-66
2022/07/03 00:56:30;;;;;;;12.65;2.70;;;15.30;99.90;;;;;;5002915;28;20495;-65
2022/07/03 00:59:01;;;;;;;12.18;3.10;;;15.30;99.90;;;;;;5001622;28;20045;-64
2022/07/03 01:01:38;;;;;;;12.75;3.55;;;15.30;99.90;;;;;;5001881;28;20500;-65
2022/07/03 01:04:18;;;;;;;12.20;2.47;;;15.40;99.90;;;;;;5000751;28;20457;-64
2022/07/03 01:06:53;;;;;;;10.05;2.30;;;15.30;99.90;;;;;;4310930;28;10000726;-64
2022/07/03 01:09:47;;;;;;;12.20;3.75;;;15.40;99.90;;;;;;4999462;28;20037;-66
2022/07/03 01:12:40;;;;;;;9.95;3.65;;;15.30;99.90;;;;;;4992106;28;20042;-65
2022/07/03 01:15:32;;;;;;;11.80;3.33;;;15.30;99.90;;;;;;4939141;28;20090;-63
2022/07/03 01:18:18;;;;;;;15.73;2.43;;;15.40;99.90;;;;;;4939462;28;20035;-64
2022/07/03 01:20:56;;;;;;;12.77;3.72;;;15.50;99.90;;;;;;4938739;28;20047;-64
2022/07/03 01:23:43;;;;;;;12.32;3.53;;;15.60;99.90;;;;;;4939347;28;20214;-64
2022/07/03 01:26:12;;;;;;;15.23;4.60;;;15.70;99.90;;;;;;4938232;28;20039;-64
2022/07/03 01:28:44;;;;;;;15.80;4.18;;;15.80;99.90;;;;;;4938582;28;20043;-63
2022/07/03 01:31:17;;;;;;;12.23;3.78;;;15.70;99.90;;;;;;4937526;28;20490;-64
2022/07/03 01:33:45;;;;;;;;;;;15.90;99.90;;;;;;4938630;28;20317;-65
2022/07/03 01:36:15;;;;;;;12.43;3.42;;;16.10;99.90;;;;;;4939470;28;20017;-66
2022/07/03 01:38:43;;;;;;;14.43;3.53;;;16.20;99.90;;;;;;4939074;28;20149;-64
2022/07/03 01:41:12;;;;;;;14.65;3.72;;;16.10;99.90;;;;;;4939330;28;20042;-62
2022/07/03 01:43:48;;;;;;;17.88;4.13;;;16.00;99.90;;;;;;4937773;28;20043;-64
2022/07/03 01:46:21;;;;;;;14.38;3.55;;;16.10;99.90;;;;;;4938286;28;20042;-64
2022/07/03 01:48:49;;;;;;;11.50;2.85;;;16.10;99.90;;;;;;4938424;28;20047;-62
2022/07/03 01:51:18;;;;;;;12.25;3.67;;;16.10;99.90;;;;;;4943743;28;20027;-64
2022/07/03 01:53:50;;;;;;;17.13;3.08;;;16.10;99.90;;;;;;4998888;28;20022;-64
2022/07/03 01:56:22;;;;;;;11.55;3.03;;;16.10;99.90;;;;;;4998580;28;20053;-64
2022/07/03 01:58:49;;;;;;;11.95;3.90;;;16.20;99.90;;;;;;4999956;28;20247;-63
2022/07/03 02:01:37;;;;;;;14.05;3.30;;;16.10;99.90;;;;;;4998722;28;20025;-64
2022/07/03 02:04:11;;;;;;;16.50;4.25;;;16.00;99.90;;;;;;4995972;28;20113;-64
2022/07/03 02:06:46;;;;;;;13.68;3.40;;;15.90;99.90;;;;;;4998421;28;20061;-65
2022/07/03 02:09:18;;;;;;;13.07;3.63;;;15.80;99.90;;;;;;4997500;28;20034;-66
2022/07/03 02:11:47;;;;;;;10.95;3.60;;;15.70;99.90;;;;;;4999969;28;20026;-66
2022/07/03 02:14:36;;;;;;;15.45;3.47;;;15.60;99.90;;;;;;4999122;28;20026;-66
2022/07/03 02:17:16;;;;;;;14.70;3.55;;;15.60;99.90;;;;;;4997073;28;20037;-66
2022/07/03 02:20:01;;;;;;;19.50;3.97;;;15.60;99.90;;;;;;4994255;28;20038;-67
2022/07/03 02:22:34;;;;;;;14.20;4.40;;;15.60;99.90;;;;;;4998739;28;20160;-65
2022/07/03 02:25:07;;;;;;;12.57;3.15;;;15.60;99.90;;;;;;4999465;28;20036;-66
2022/07/03 02:27:46;;;;;;;13.82;4.15;;;15.60;99.90;;;;;;4997904;28;20517;-64
2022/07/03 02:30:13;;;;;;;15.80;3.95;;;15.60;99.90;;;;;;4996887;28;20149;-64
2022/07/03 02:32:52;;;;;;;15.95;3.78;;;15.70;99.90;;;;;;4997455;28;20481;-66
2022/07/03 02:35:30;;;;;;;19.83;5.18;;;15.70;99.90;;;;;;4998453;28;20092;-64
2022/07/03 02:38:22;;;;;;;15.00;2.85;;;15.70;99.90;;;;;;4998445;28;20036;-66
2022/07/03 02:41:03;;;;;;;16.25;4.20;;;15.80;99.90;;;;;;4998186;28;20641;-65
2022/07/03 02:43:50;;;;;;;16.77;3.63;;;15.90;99.90;;;;;;4996549;28;20600;-64
2022/07/03 02:46:50;;;;;;;13.93;4.07;;;16.00;99.90;;;;;;4937126;28;20039;-65
2022/07/03 02:49:23;;;;;;;13.75;4.38;;;16.10;99.90;;;;;;4933428;28;20035;-64
2022/07/03 02:52:29;;;;;;;13.02;3.03;;;16.20;99.90;;;;;;4932796;28;20461;-65
2022/07/03 02:55:02;;;;;;;16.70;3.88;;;16.30;99.90;;;;;;4934088;28;20031;-66
2022/07/03 02:57:41;;;;;;;14.80;3.78;;;16.30;99.90;;;;;;4933800;28;20551;-67
2022/07/03 03:00:12;;;;;;;14.25;4.07;;;16.40;99.90;;;;;;4934336;28;20045;-65
2022/07/03 03:02:50;;;;;;;16.73;3.92;;;16.50;99.90;;;;;;4932694;28;20044;-65
2022/07/03 03:05:47;;;;;;;13.63;3.10;;;16.60;99.90;;;;;;4932026;28;20451;-64
2022/07/03 03:08:24;;;;;;;13.32;3.95;;;16.50;99.90;;;;;;4874431;29;20055;-63
2022/07/03 03:10:53;;;;;;;19.25;3.83;;;16.30;99.90;;;;;;4876196;29;20049;-64
2022/07/03 03:13:26;;;;;;;18.05;3.72;;;16.20;99.90;;;;;;4876218;29;20424;-64
2022/07/03 03:15:53;;;;;;;11.00;2.83;;;16.20;99.90;;;;;;4875804;29;20033;-66
2022/07/03 03:18:25;;;;;;;15.07;4.40;;;16.10;99.90;;;;;;4874974;29;20183;-64
2022/07/03 03:20:58;;;;;;;17.50;5.93;;;16.00;99.90;;;;;;4876721;29;20037;-65
2022/07/03 03:23:43;;;;;;;15.82;3.72;;;15.90;99.90;;;;;;4894920;29;20281;-65
2022/07/03 03:26:11;;;;;;;16.88;3.85;;;15.70;99.90;;;;;;4913772;29;20303;-64
2022/07/03 03:28:43;;;;;;;18.77;3.85;;;15.50;99.90;;;;;;4913933;29;20031;-68
2022/07/03 03:31:11;;;;;;;19.38;5.10;;;15.30;99.90;;;;;;4913037;29;20055;-68
2022/07/03 03:33:43;;;;;;;20.15;4.25;;;15.20;99.90;;;;;;4897869;29;20040;-64
2022/07/03 03:36:12;;;;;;;13.98;4.63;;;15.10;99.90;;;;;;4914303;29;20032;-64
2022/07/03 03:38:41;;;;;;;20.35;5.57;;;15.00;99.90;;;;;;4914717;29;20425;-67
2022/07/03 03:41:08;;;;;;;11.50;3.78;;;14.90;99.90;;;;;;4915086;29;20051;-68
2022/07/03 03:43:36;;;;;;;19.92;4.03;;;14.80;99.90;;;;;;4917801;28;20632;-65
2022/07/03 03:46:04;;;;;;;19.88;4.13;;;14.80;99.90;;;;;;4994605;28;20030;-67
2022/07/03 03:48:35;;;;;;;15.55;4.22;;;14.80;99.90;;;;;;4995013;28;20018;-65
2022/07/03 03:51:04;;;;;;;19.58;4.55;;;14.70;99.90;;;;;;4993756;28;20034;-67
2022/07/03 03:53:31;;;;;;;19.23;4.68;;;14.70;99.90;;;;;;4996380;28;20026;-67
2022/07/03 03:56:06;;;;;;;14.05;3.35;;;14.70;99.90;;;;;;4997635;28;20129;-63
2022/07/03 03:58:38;;;;;;;12.10;3.80;;;14.70;99.90;;;;;;4998301;28;20053;-64
2022/07/03 04:01:07;;;;;;;17.10;3.67;;;14.70;99.90;;;;;;4998552;28;20030;-68
2022/07/03 04:03:35;;;;;;;14.73;2.90;;;14.70;99.90;;;;;;4996785;28;20481;-68
2022/07/03 04:06:02;;;;;;;20.73;4.03;;;14.70;99.90;;;;;;4997693;28;20067;-67
2022/07/03 04:08:31;;;;;;;19.90;3.47;;;14.70;99.90;;;;;;4998164;28;20121;-68
2022/07/03 04:11:00;;;;;;;13.40;3.33;;;14.70;99.90;;;;;;4997132;28;20405;-64
2022/07/03 04:13:28;;;;;;;20.08;3.78;;;14.70;99.90;;;;;;4998409;28;20029;-65
2022/07/03 04:15:55;;;;;;;14.32;2.90;;;14.70;99.90;;;;;;4997104;28;20030;-67
2022/07/03 04:18:23;;;;;;;13.15;2.90;;;14.70;99.90;;;;;;4995740;28;20365;-67
2022/07/03 04:20:50;;;;;;;17.83;3.00;;;14.70;99.90;;;;;;4997832;28;20021;-64
2022/07/03 04:23:18;;;;;;;15.88;3.80;;;14.70;99.90;;;;;;4997681;28;20112;-64
2022/07/03 04:25:45;;;;;;;13.65;3.42;;;14.70;99.90;;;;;;4997831;28;20025;-65
2022/07/03 04:28:12;;;;;;;15.73;4.32;;;14.70;99.90;;;;;;4997906;28;20066;-68
2022/07/03 04:30:40;;;;;;;18.80;4.40;;;14.60;99.90;;;;;;4997164;28;20057;-65
2022/07/03 04:33:07;;;;;;;16.35;3.20;;;14.60;99.90;;;;;;4995550;28;20076;-67
2022/07/03 04:35:34;;;;;;;13.95;3.33;;;14.60;99.90;;;;;;4996877;28;20443;-64
2022/07/03 04:38:02;;;;;;;20.05;4.63;;;14.50;99.90;;;;;;4998812;28;20392;-68
2022/07/03 04:40:29;;;;;;;15.18;4.10;;;14.50;99.90;;;;;;4998416;28;20025;-66
2022/07/03 04:42:56;;;;;;;19.48;3.72;;;14.50;99.90;;;;;;4996504;28;20083;-64
2022/07/03 04:45:23;;;;;;;14.50;3.80;;;14.50;99.90;;;;;;5012149;28;20128;-65
2022/07/03 04:47:50;;;;;;;20.70;4.85;;;14.50;99.90;;;;;;4996983;28;20330;-67
2022/07/03 04:50:17;;;;;;;17.27;4.18;;;14.40;99.90;;;;;;4996965;28;20030;-65
2022/07/03 04:52:44;;;;;;;17.52;5.43;;;14.50;99.90;;;;;;4996230;28;20021;-64
2022/07/03 04:55:12;;;;;;;19.52;4.22;;;14.50;99.90;;;;;;4996434;28;20026;-65
2022/07/03 04:57:39;;;;;;;20.90;5.00;;;14.50;99.90;;;;;;4995550;28;20636;-64
2022/07/03 05:00:07;;;;;;;15.75;3.83;;;14.50;99.90;;;;;;4996677;28;20064;-65
2022/07/03 05:02:35;;;;;;;19.17;3.78;;;14.50;99.90;;;;;;4997604;28;20030;-65
2022/07/03 05:05:03;;;;;;;16.98;3.60;;;14.50;99.90;;;;;;4993583;28;20026;-64
2022/07/03 05:07:30;;;;;;;15.52;3.92;;;14.50;99.90;;;;;;4996576;28;20045;-67
2022/07/03 05:09:58;;;;;;;19.02;4.60;;;14.50;99.90;;;;;;4995921;28;20471;-69
2022/07/03 05:12:25;;;;;;;13.00;3.15;;;14.50;99.90;;;;;;4996323;28;20026;-65
2022/07/03 05:14:53;;;;;;;13.82;2.90;;;14.50;99.90;;;;;;4979171;28;20148;-64
2022/07/03 05:17:20;;;;;;;13.95;4.10;;;14.40;99.90;;;;;;4997012;28;20025;-64
2022/07/03 05:19:47;;;;;;;13.93;3.60;;;14.30;99.90;;;;;;4996001;28;20066;-66
2022/07/03 05:22:14;;;;;;;19.17;3.17;;;14.30;99.90;;;;;;4995829;28;20374;-64
2022/07/03 05:24:41;;;;;;;18.88;4.43;;;14.30;99.90;;;;;;4996534;28;20502;-67
2022/07/03 05:27:09;;;;;;;20.80;4.18;;;14.30;99.90;;;;;;4996677;28;20030;-67
2022/07/03 05:29:38;;;;;;;15.43;2.57;;;14.30;99.90;;;;;;4663165;23;10002672;-65
2022/07/03 05:32:07;;;;;;;20.90;4.22;;;14.30;99.90;;;;;;5033133;28;20551;-66
2022/07/03 05:34:34;;;;;;;13.20;2.83;;;14.30;99.90;;;;;;5033257;28;20114;-67
2022/07/03 05:37:01;;;;;;;11.95;2.92;;;14.30;99.90;;;;;;5033733;28;20144;-69
2022/07/03 05:39:34;;;;;;;14.00;3.05;;;14.30;99.90;;;;;;5016083;28;20036;-67
2022/07/03 05:42:02;;;;;;;16.55;3.13;;;14.20;99.90;;;;;;5017044;28;20036;-68
2022/07/03 05:44:29;;;;;;;15.63;3.42;;;14.20;99.90;;;;;;5033354;28;20060;-67
2022/07/03 05:46:56;;;;;;;15.93;4.30;;;14.20;99.90;;;;;;5033439;28;20036;-67
2022/07/03 05:49:23;;;;;;;16.50;3.42;;;14.20;99.90;;;;;;5032805;28;20033;-69
2022/07/03 05:51:50;;;;;;;16.00;2.63;;;14.10;99.90;;;;;;5033720;28;20768;-67
2022/07/03 05:54:17;;;;;;;20.90;3.70;;;14.10;99.90;;;;;;5031895;28;20071;-68
2022/07/03 05:56:44;;;;;;;20.50;3.80;;;14.10;99.90;;;;;;5033357;28;20025;-68
2022/07/03 05:59:12;;;;;;;17.05;2.97;;;14.10;99.90;;;;;;5034149;28;20491;-67
2022/07/03 06:01:39;;;;;;;10.40;2.95;;;14.10;99.90;;;;;;5034524;28;20033;-65
2022/07/03 06:04:06;;;;;;;14.02;3.10;;;14.00;99.90;;;;;;5029846;28;20029;-66
2022/07/03 06:06:33;;;;;;;15.30;3.95;;;14.00;99.90;;;;;;5017375;28;20029;-68
2022/07/03 06:09:00;;;;;;;13.52;3.35;;;14.00;99.90;;;;;;5032570;28;20033;-66
2022/07/03 06:11:27;;;;;;;16.13;3.08;;;14.00;99.90;;;;;;5031561;28;20431;-65
2022/07/03 06:13:55;;;;;;;27.35;16.05;;;14.00;99.90;;;;;;5030634;28;20049;-63
2022/07/03 06:16:22;;;;;;;11.27;4.00;;;13.90;99.90;;;;;;5032129;28;20032;-69
2022/07/03 06:18:49;;;;;;;18.00;4.38;;;13.80;99.90;;;;;;5015161;28;20399;-68
2022/07/03 06:21:16;;;;;;;14.93;3.92;;;13.80;99.90;;;;;;5031512;28;20063;-64
2022/07/03 06:23:46;;;;;;;17.90;3.50;;;13.80;99.90;;;;;;5031632;28;20040;-67
2022/07/03 06:26:16;;;;;;;10.77;4.20;;;13.70;99.90;;;;;;5032452;28;20370;-67
2022/07/03 06:28:44;;;;;;;14.95;4.30;;;13.60;99.90;;;;;;5033195;28;20018;-65
2022/07/03 06:31:12;;;;;;;16.75;4.22;;;13.60;99.90;;;;;;5020509;28;20041;-65
2022/07/03 06:33:39;;;;;;;18.25;3.55;;;13.60;99.90;;;;;;5032476;28;20087;-67
2022/07/03 06:36:06;;;;;;;13.35;3.47;;;13.60;99.90;;;;;;5032351;28;20036;-66
2022/07/03 06:38:33;;;;;;;11.45;2.95;;;13.60;99.90;;;;;;5032117;28;20025;-64
2022/07/03 06:41:00;;;;;;;16.25;3.92;;;13.50;99.90;;;;;;5032433;28;20033;-67
2022/07/03 06:43:28;;;;;;;13.50;3.60;;;13.50;99.90;;;;;;5029490;28;20021;-65
2022/07/03 06:45:55;;;;;;;12.20;3.53;;;13.60;99.90;;;;;;5033339;28;20033;-66
2022/07/03 06:48:22;;;;;;;13.77;2.88;;;13.50;99.90;;;;;;5031565;28;20029;-66
2022/07/03 06:50:49;;;;;;;11.73;2.10;;;13.50;99.90;;;;;;5033070;28;20086;-63
2022/07/03 06:53:17;;;;;;;10.27;2.20;;;13.50;99.90;;;;;;5031657;28;20569;-66
2022/07/03 06:55:44;;;;;;;7.72;2.58;;;13.50;99.90;;;;;;5032962;28;20022;-69
2022/07/03 06:58:11;;;;;;;10.43;1.88;;;13.40;99.90;;;;;;5031327;28;20013;-64
2022/07/03 07:00:38;;;;;;;7.45;2.10;;;13.40;99.90;;;;;;5033479;28;20032;-65
2022/07/03 07:03:06;;;;;;;9.43;2.75;;;13.40;99.90;;;;;;5032597;28;20067;-66
2022/07/03 07:05:33;;;;;;;11.10;2.25;;;13.40;99.90;;;;;;5029945;28;20075;-67
2022/07/03 07:08:00;;;;;;;11.18;2.65;;;13.40;99.90;;;;;;5031062;28;20036;-63
2022/07/03 07:10:28;;;;;;;10.02;2.30;;;13.40;99.90;;;;;;5032954;28;20034;-65
2022/07/03 07:12:55;;;;;;;11.60;3.05;;;13.40;99.90;;;;;;5032438;28;20029;-63
2022/07/03 07:15:25;;;;;;;10.00;2.47;;;13.30;99.90;;;;;;5032678;28;20518;-65
2022/07/03 07:17:55;;;;;;;11.05;2.20;;;13.40;99.90;;;;;;5032541;28;20518;-63
2022/07/03 07:20:22;;;;;;;9.40;2.70;;;13.30;99.90;;;;;;5031507;28;20017;-64
2022/07/03 07:22:49;;;;;;;14.68;2.53;;;13.30;99.90;;;;;;5033502;28;20036;-62
2022/07/03 07:25:16;;;;;;;9.38;2.03;;;13.30;99.90;;;;;;5032639;28;20036;-64
2022/07/03 07:27:43;;;;;;;12.80;2.78;;;13.30;99.90;;;;;;5031045;28;20644;-63
2022/07/03 07:30:11;;;;;;;9.50;3.15;;;13.30;99.90;;;;;;5031140;28;20048;-64
2022/07/03 07:32:38;;;;;;;13.90;2.60;;;13.30;99.90;;;;;;5016004;28;20032;-66
2022/07/03 07:35:06;;;;;;;7.90;2.78;;;13.30;99.90;;;;;;5028871;28;20059;-63
2022/07/03 07:37:33;;;;;;;10.05;2.80;;;13.30;99.90;;;;;;5031585;28;20495;-65
2022/07/03 07:40:00;;;;;;;10.63;3.67;;;13.30;99.90;;;;;;5030885;28;20065;-66
2022/07/03 07:42:30;;;;;;;13.75;2.17;;;13.30;99.90;;;;;;5031335;28;20406;-62
2022/07/03 07:45:00;;;;;;;14.30;2.47;;;13.30;99.90;;;;;;5031301;28;20064;-65
2022/07/03 07:47:30;;;;;;;5.35;2.17;;;13.30;99.90;;;;;;5031124;28;20021;-65
2022/07/03 07:49:57;;;;;;;10.98;2.97;;;13.40;99.90;;;;;;5030889;28;20036;-64
2022/07/03 07:52:24;;;;;;;10.40;3.00;;;13.40;99.90;;;;;;5031064;28;20534;-64
2022/07/03 07:54:51;;;;;;;11.38;2.47;;;13.40;99.90;;;;;;5029965;28;20275;-62
2022/07/03 07:57:18;;;;;;;5.90;2.30;;;13.40;99.90;;;;;;5030755;28;20029;-68
2022/07/03 07:59:45;;;;;;;13.18;3.17;;;13.40;99.90;;;;;;5030520;28;20299;-67
2022/07/03 08:07:43;;;;;;;10.20;2.35;;;13.40;99.90;;;;;;5033477;28;20040;-64
2022/07/03 08:10:10;;;;;;;9.23;2.45;;;13.40;99.90;;;;;;5034313;28;20028;-63
2022/07/03 08:12:37;;;;;;;14.02;2.92;;;13.50;99.90;;;;;;5034216;28;20159;-62
2022/07/03 08:15:05;;;;;;;15.90;2.70;;;13.50;99.90;;;;;;5035029;28;20056;-67
2022/07/03 08:17:35;;;;;;;9.10;2.42;;;13.50;99.90;;;;;;5029812;28;20415;-64
2022/07/03 08:20:02;;;;;;;11.43;2.20;;;13.50;99.90;;;;;;5031219;28;20862;-63
2022/07/03 08:22:29;;;;;;;15.45;4.00;;;13.60;99.90;;;;;;5031559;28;20053;-67
2022/07/03 08:24:56;;;;;;;13.20;2.72;;;13.50;99.90;;;;;;5034857;28;20087;-69
2022/07/03 08:27:23;;;;;;;7.82;2.35;;;13.60;99.90;;;;;;5033990;28;20135;-63
2022/07/03 08:29:50;;;;;;;11.25;2.28;;;13.60;99.90;;;;;;5032659;28;20049;-65
2022/07/03 08:32:17;;;;;;;11.48;2.58;;;13.60;99.90;;;;;;5016327;28;20040;-71
2022/07/03 08:34:45;;;;;;;12.73;2.60;;;13.60;99.90;;;;;;5031458;28;20108;-74
2022/07/03 08:37:12;;;;;;;10.73;3.25;;;13.60;99.90;;;;;;5034294;28;20028;-67
2022/07/03 08:39:39;;;;;;;10.73;3.88;;;13.60;99.90;;;;;;5033902;28;20060;-75
2022/07/03 08:42:11;;;;;;;20.90;5.32;;;13.60;99.90;;;;;;5037778;28;20037;-69
2022/07/03 08:44:43;;;;;;;13.57;4.47;;;13.60;99.90;;;;;;5037857;28;20487;-73
2022/07/03 08:47:12;;;;;;;8.57;4.13;;;13.60;99.90;;;;;;5037716;28;20068;-71
2022/07/03 08:49:41;;;;;;;17.45;4.90;;;13.60;99.90;;;;;;5034314;28;20024;-68
2022/07/03 08:52:11;;;;;;;13.98;5.43;;;13.60;99.90;;;;;;5033264;28;20021;-67
2022/07/03 08:54:41;;;;;;;21.48;5.38;;;13.60;99.90;;;;;;5034411;28;20063;-67
2022/07/03 08:57:12;;;;;;;14.90;4.28;;;13.60;99.90;;;;;;5035253;28;20079;-68
2022/07/03 08:59:46;;;;;;;22.00;4.88;;;13.60;99.90;;;;;;5035169;28;20222;-72
2022/07/03 09:02:14;;;;;;;16.08;2.83;;;13.70;99.90;;;;;;5033517;28;20628;-72
2022/07/03 09:04:45;;;;;;;16.50;3.72;;;13.70;99.90;;;;;;5033259;28;20033;-68
2022/07/03 09:07:13;;;;;;;17.20;4.25;;;13.70;99.90;;;;;;5034184;28;20044;-69
2022/07/03 09:09:44;;;;;;;13.15;4.15;;;13.70;99.90;;;;;;5033439;28;20059;-73
2022/07/03 09:12:14;;;;;;;19.13;3.22;;;13.70;99.90;;;;;;5034789;28;20025;-73
2022/07/03 09:14:44;;;;;;;20.35;3.42;;;13.70;99.90;;;;;;5034232;28;20021;-69
2022/07/03 09:17:14;;;;;;;15.30;3.38;;;13.70;99.90;;;;;;5034877;28;20025;-70
2022/07/03 09:19:47;;;;;;;18.35;2.80;;;13.70;99.90;;;;;;5033756;28;20025;-67
2022/07/03 09:22:21;;;;;;;15.98;3.25;;;13.70;99.90;;;;;;5015508;28;20168;-65
2022/07/03 09:24:50;;;;;;;16.58;3.08;;;13.70;99.90;;;;;;5034487;28;20091;-65
2022/07/03 09:27:20;;;;;;;20.25;3.90;;;13.70;99.90;;;;;;5034691;28;20086;-64
2022/07/03 09:29:59;;;;;;;13.23;3.58;;;13.70;99.90;;;;;;5032544;28;20668;-65
2022/07/03 09:32:39;;;;;;;15.98;3.28;;;13.70;99.90;;;;;;5016650;28;20075;-68
2022/07/03 09:35:22;;;;;;;17.67;4.63;;;13.70;99.90;;;;;;5033017;28;20154;-62
2022/07/03 09:37:59;;;;;;;;;;;13.70;99.90;;;;;;5032079;28;20289;-66
2022/07/03 09:40:30;;;;;;;16.88;4.90;;;13.70;99.90;;;;;;5032302;28;19942;-68
2022/07/03 09:43:08;;;;;;;12.88;5.25;;;13.70;99.90;;;;;;5032012;28;20061;-63
2022/07/03 09:45:57;;;;;;;12.65;4.88;;;13.70;99.90;;;;;;5033393;28;20033;-68
2022/07/03 09:48:31;;;;;;;12.00;4.45;;;13.70;99.90;;;;;;5029873;28;20585;-61
2022/07/03 09:51:29;;;;;;;9.10;4.03;;;13.70;99.90;;;;;;5036044;28;20037;-68
2022/07/03 09:54:05;;;;;;;10.68;2.33;;;13.70;99.90;;;;;;5038112;28;20462;-63
2022/07/03 09:56:37;;;;;;;6.75;1.85;;;13.70;99.90;;;;;;5037402;28;20032;-63
2022/07/03 09:59:09;;;;;;;4.72;1.00;;;13.70;99.90;;;;;;5038906;28;20111;-67
2022/07/03 10:01:38;;;;;;;10.83;1.97;;;13.60;99.90;;;;;;5038184;28;20021;-61
2022/07/03 10:04:22;;;;;;;13.02;2.78;;;13.70;99.90;;;;;;5019339;28;20447;-66
2022/07/03 10:06:56;;;;;;;13.95;2.38;;;13.70;99.90;;;;;;5037808;28;20431;-62
2022/07/03 10:09:25;;;;;;;7.35;1.65;;;13.70;99.90;;;;;;5039177;28;20036;-62
2022/07/03 10:11:53;;;;;;;10.73;1.90;;;13.70;99.90;;;;;;5039413;28;20025;-62
2022/07/03 10:14:23;;;;;;;9.63;2.05;;;13.80;99.90;;;;;;5038893;28;20028;-63
2022/07/03 10:16:55;;;;;;;7.32;1.73;;;13.70;99.90;;;;;;5038077;28;20032;-63
2022/07/03 10:19:25;;;;;;;6.78;2.22;;;13.70;99.90;;;;;;5037420;28;20583;-67
2022/07/03 10:21:55;;;;;;;8.63;1.63;;;13.70;99.90;;;;;;5018330;28;20419;-62
2022/07/03 10:24:27;;;;;;;9.77;1.73;;;13.70;99.90;;;;;;5036101;28;20187;-61
2022/07/03 10:26:59;;;;;;;4.27;1.27;;;13.70;99.90;;;;;;5038798;28;20128;-64
2022/07/03 10:29:27;;;;;;;7.43;1.43;;;13.70;99.90;;;;;;5037629;28;20058;-63
2022/07/03 10:31:55;;;;;;;9.93;1.65;;;13.60;99.90;;;;;;5031844;28;20060;-70
2022/07/03 10:34:24;;;;;;;9.82;1.85;;;13.60;99.90;;;;;;5039654;28;20517;-69
2022/07/03 10:37:01;;;;;;;6.65;1.38;;;13.60;99.90;;;;;;5039374;28;20086;-68
2022/07/03 10:39:55;;;;;;;9.65;1.35;;;13.60;99.90;;;;;;5039531;28;20396;-61
2022/07/03 10:45:18;;;;;;;8.95;1.75;;;13.70;99.90;;;;;;5039521;28;20032;-63
2022/07/03 10:47:49;;;;;;;7.00;0.98;;;13.70;99.90;;;;;;5040051;28;20996;-64
2022/07/03 10:50:24;;;;;;;4.38;1.20;;;13.80;99.90;;;;;;5039075;28;20028;-64
2022/07/03 10:52:52;;;;;;;6.00;1.48;;;13.70;99.90;;;;;;5041481;28;20036;-69
2022/07/03 10:55:19;;;;;;;7.85;1.67;;;13.70;99.90;;;;;;5041084;28;20024;-73
2022/07/03 10:58:09;;;;;;;4.38;1.35;;;13.70;99.90;;;;;;5039527;28;20032;-68
2022/07/03 11:00:58;;;;;;;3.47;1.50;;;13.70;99.90;;;;;;5037513;28;20458;-72
2022/07/03 11:04:02;;;;;;;8.43;1.85;;;13.80;99.90;;;;;;5036420;28;20033;-67
2022/07/03 11:06:44;;;;;;;6.78;1.65;;;13.70;99.90;;;;;;5041187;28;20816;-63
2022/07/03 11:09:22;;;;;;;9.93;2.61;;;13.70;99.90;;;;;;4951488;28;10001214;-72
2022/07/03 11:11:55;;;;;;;8.63;2.15;;;13.70;99.90;;;;;;5037227;28;20271;-68
2022/07/03 11:14:23;;;;;;;12.50;2.85;;;13.80;99.90;;;;;;5038105;28;20252;-70
2022/07/03 11:17:20;;;;;;;10.43;4.30;;;13.70;99.90;;;;;;5037109;28;20025;-63
2022/07/03 11:23:08;;;;;;;12.13;3.25;;;13.80;99.90;;;;;;5036221;28;20506;-70
2022/07/03 11:25:42;;;;;;;15.32;3.45;;;13.80;99.90;;;;;;5037332;28;20186;-73
2022/07/03 11:28:35;;;;;;;16.88;3.70;;;13.80;99.90;;;;;;5037679;28;20047;-70
2022/07/03 11:31:13;;;;;;;13.68;2.80;;;13.80;99.90;;;;;;4975496;28;20054;-62
2022/07/03 11:33:46;;;;;;;10.98;3.20;;;13.80;99.90;;;;;;4973848;28;20093;-70
2022/07/03 11:36:16;;;;;;;12.35;3.58;;;13.80;99.90;;;;;;4976331;28;20900;-74
2022/07/03 11:38:45;;;;;;;10.73;2.88;;;13.80;99.90;;;;;;4975802;28;20023;-62
2022/07/03 11:41:14;;;;;;;10.25;3.92;;;13.80;99.90;;;;;;4976141;28;20049;-63
2022/07/03 11:43:48;;;;;;;10.05;2.75;;;13.80;99.90;;;;;;4974229;28;20039;-63
2022/07/03 11:46:20;;;;;;;9.80;2.67;;;13.80;99.90;;;;;;4974830;28;20466;-70
2022/07/03 11:48:47;;;;;;;17.60;3.35;;;13.80;99.90;;;;;;4974826;28;20050;-63
2022/07/03 11:51:15;;;;;;;10.93;2.10;;;13.80;99.90;;;;;;4974956;28;20038;-63
2022/07/03 11:53:42;;;;;;;10.40;2.60;;;13.80;99.90;;;;;;4975300;28;20034;-71
2022/07/03 11:56:12;;;;;;;7.88;2.10;;;13.80;99.90;;;;;;4974471;28;20539;-63
2022/07/03 11:58:46;;;;;;;10.70;2.47;;;13.80;99.90;;;;;;4975940;28;20069;-65
2022/07/03 12:01:34;;;;;;;14.40;2.55;;;13.80;99.90;;;;;;4974033;28;20432;-72
2022/07/03 12:04:12;;;;;;;11.50;3.85;;;13.80;99.90;;;;;;4972322;28;20101;-64
2022/07/03 12:06:49;;;;;;;13.68;2.38;;;13.80;99.90;;;;;;4974412;28;20053;-64
2022/07/03 12:09:24;;;;;;;15.88;2.80;;;13.80;99.90;;;;;;5034800;28;20589;-63
2022/07/03 12:11:57;;;;;;;13.07;2.70;;;13.80;99.90;;;;;;5037442;28;20045;-71
2022/07/03 12:14:45;;;;;;;11.55;3.33;;;13.80;99.90;;;;;;5039066;28;20586;-72
2022/07/03 12:17:14;;;;;;;13.73;3.00;;;13.80;99.90;;;;;;5042178;28;20058;-70
2022/07/03 12:20:02;;;;;;;15.80;2.75;;;13.80;99.90;;;;;;5042134;28;20020;-62
2022/07/03 12:22:33;;;;;;;8.32;2.30;;;13.80;99.90;;;;;;5040848;28;20025;-71
2022/07/03 12:25:08;;;;;;;11.10;2.63;;;13.80;99.90;;;;;;5043004;28;20090;-73
2022/07/03 12:27:38;;;;;;;8.80;2.70;;;13.80;99.90;;;;;;5044350;28;20436;-71
2022/07/03 12:30:08;;;;;;;15.77;3.65;;;13.80;99.90;;;;;;5047236;28;20486;-62
2022/07/03 12:32:35;;;;;;;13.95;2.25;;;13.80;99.90;;;;;;5046199;28;20504;-72
2022/07/03 12:35:03;;;;;;;17.58;3.33;;;13.80;99.90;;;;;;5048231;28;20053;-62
2022/07/03 12:37:41;;;;;;;10.25;2.40;;;13.80;99.90;;;;;;5047365;28;20013;-62
2022/07/03 12:40:09;;;;;;;13.35;2.53;;;13.80;99.90;;;;;;5048344;28;20096;-63
2022/07/03 12:42:51;;;;;;;12.80;2.60;;;13.90;99.90;;;;;;5048211;28;20071;-71
2022/07/03 12:45:24;;;;;;;12.40;3.13;;;13.80;99.90;;;;;;5047726;28;20059;-70
2022/07/03 12:48:06;;;;;;;14.95;2.05;;;13.80;99.90;;;;;;5047017;28;20491;-73
2022/07/03 12:50:59;;;;;;;12.65;2.55;;;13.80;99.90;;;;;;5046973;28;20108;-69
2022/07/03 12:53:31;;;;;;;9.80;2.28;;;13.80;99.90;;;;;;5046318;28;20025;-62
2022/07/03 12:56:06;;;;;;;9.38;2.78;;;13.80;99.90;;;;;;5047048;28;20029;-72
2022/07/03 13:01:36;;;;;;;10.48;2.25;;;13.80;99.90;;;;;;5047322;28;20027;-74
2022/07/03 13:04:04;;;;;;;12.25;2.28;;;13.80;99.90;;;;;;5045404;28;20098;-71
2022/07/03 13:06:31;;;;;;;12.75;2.90;;;13.80;99.90;;;;;;5047738;28;20037;-63
2022/07/03 13:09:06;;;;;;;13.15;4.43;;;13.80;99.90;;;;;;5047157;28;20533;-63
2022/07/03 13:11:40;;;;;;;10.75;2.40;;;13.90;99.90;;;;;;5047495;28;20071;-64
2022/07/03 13:14:15;;;;;;;14.40;2.80;;;13.90;99.90;;;;;;5046847;28;20843;-73
2022/07/03 13:16:47;;;;;;;14.95;3.20;;;13.90;99.90;;;;;;5046982;28;20063;-63